Time;durP1;ratioP1;P1;durP2;ratioP2;P2;SDS_P1;SDS_P2;PMS_P1;PMS_P2;Temp;Humidity;BMP_temperature;BMP_pressure;BME280_temperature;BME280_humidity;BME280_pressure;Samples;Min_cycle;Max_cycle;Signal;HPM_P1;HPM_P2
2023/03/23 00:00:31;;;;;;;8.48;6.45;;;11.80;99.90;;;;;;5035489;28;20481;-65
2023/03/23 00:02:57;;;;;;;8.10;5.80;;;11.80;99.90;;;;;;5052975;28;20136;-66
2023/03/23 00:05:23;;;;;;;10.27;6.55;;;11.80;99.90;;;;;;5053609;28;20045;-65
2023/03/23 00:07:52;;;;;;;7.47;5.57;;;11.80;99.90;;;;;;5052719;28;20388;-65
2023/03/23 00:10:18;;;;;;;8.02;5.80;;;11.80;99.90;;;;;;5053200;28;20045;-65
2023/03/23 00:12:45;;;;;;;10.88;6.70;;;11.80;99.90;;;;;;5052335;28;20350;-65
2023/03/23 00:15:12;;;;;;;8.23;5.68;;;11.80;99.90;;;;;;5056635;28;20048;-64
2023/03/23 00:17:40;;;;;;;7.65;5.75;;;11.80;99.90;;;;;;5072468;28;20465;-64
2023/03/23 00:20:12;;;;;;;8.43;5.95;;;11.80;99.90;;;;;;5072966;28;20040;-65
2023/03/23 00:22:38;;;;;;;6.82;5.03;;;11.80;99.90;;;;;;5072660;28;20052;-64
2023/03/23 00:25:05;;;;;;;8.80;5.78;;;11.80;99.90;;;;;;5072796;28;20051;-65
2023/03/23 00:27:32;;;;;;;7.88;5.30;;;11.80;99.90;;;;;;5072568;28;20063;-65
2023/03/23 00:29:58;;;;;;;8.73;4.70;;;11.80;99.90;;;;;;5072743;28;20056;-66
2023/03/23 00:32:28;;;;;;;7.80;5.38;;;11.90;99.90;;;;;;5072651;28;20052;-67
2023/03/23 00:34:56;;;;;;;7.30;5.00;;;11.80;99.90;;;;;;5071672;28;20086;-65
2023/03/23 00:37:22;;;;;;;7.95;4.68;;;11.80;99.90;;;;;;5072915;28;20066;-66
2023/03/23 00:39:51;;;;;;;7.95;5.10;;;11.80;99.90;;;;;;5072793;28;20044;-65
2023/03/23 00:42:17;;;;;;;8.73;4.70;;;11.90;99.90;;;;;;5071201;28;20063;-66
2023/03/23 00:44:44;;;;;;;7.57;4.45;;;11.80;99.90;;;;;;5072547;28;20106;-65
2023/03/23 00:47:12;;;;;;;9.30;4.63;;;11.90;99.90;;;;;;5070988;28;20056;-65
2023/03/23 00:49:38;;;;;;;6.88;4.50;;;11.90;99.90;;;;;;5071931;28;20048;-65
2023/03/23 00:52:06;;;;;;;6.90;4.45;;;11.90;99.90;;;;;;5070956;28;20067;-65
2023/03/23 00:54:34;;;;;;;9.02;4.57;;;11.90;99.90;;;;;;5072560;28;20048;-65
2023/03/23 00:57:09;;;;;;;9.63;4.85;;;11.90;99.90;;;;;;5071161;28;20055;-65
2023/03/23 00:59:36;;;;;;;7.63;4.97;;;11.90;99.90;;;;;;5072160;28;20423;-66
2023/03/23 01:02:06;;;;;;;9.07;4.65;;;11.90;99.90;;;;;;5072032;28;20460;-65
2023/03/23 01:04:36;;;;;;;7.32;4.35;;;11.90;99.90;;;;;;5071150;28;20083;-66
2023/03/23 01:07:05;;;;;;;5.53;4.03;;;11.90;99.90;;;;;;5072114;28;20106;-65
2023/03/23 01:09:32;;;;;;;5.72;3.80;;;11.90;99.90;;;;;;5072163;28;20064;-65
2023/03/23 01:11:58;;;;;;;6.65;4.18;;;11.90;99.90;;;;;;5071901;28;20110;-67
2023/03/23 01:14:26;;;;;;;7.38;5.07;;;11.90;99.90;;;;;;5072370;28;20408;-66
2023/03/23 01:16:52;;;;;;;7.18;3.90;;;11.90;99.90;;;;;;5060131;28;20127;-65
2023/03/23 01:19:25;;;;;;;7.32;4.43;;;11.90;99.90;;;;;;5034389;28;20148;-65
2023/03/23 01:21:52;;;;;;;9.40;4.38;;;11.90;99.90;;;;;;5052326;28;20041;-65
2023/03/23 01:24:20;;;;;;;7.28;4.65;;;11.90;99.90;;;;;;5034012;28;20060;-65
2023/03/23 01:26:47;;;;;;;7.13;4.40;;;11.90;99.90;;;;;;5061613;28;20086;-65
2023/03/23 01:29:13;;;;;;;8.35;4.20;;;11.90;99.90;;;;;;5072072;28;20049;-65
2023/03/23 01:31:40;;;;;;;7.90;4.25;;;11.90;99.90;;;;;;5071800;28;20044;-65
2023/03/23 01:34:06;;;;;;;6.57;4.38;;;11.90;99.90;;;;;;5071314;28;20364;-65
2023/03/23 01:36:35;;;;;;;5.43;4.28;;;11.90;99.90;;;;;;5063374;28;20049;-65
2023/03/23 01:39:04;;;;;;;5.30;3.53;;;11.90;99.90;;;;;;5051996;28;20099;-66
2023/03/23 01:41:32;;;;;;;7.35;3.78;;;12.00;99.90;;;;;;5034460;28;20049;-65
2023/03/23 01:44:06;;;;;;;6.65;4.15;;;12.00;99.90;;;;;;5051342;28;20049;-65
2023/03/23 01:46:34;;;;;;;6.90;4.40;;;11.90;99.90;;;;;;5059418;28;20102;-65
2023/03/23 01:49:11;;;;;;;5.30;3.90;;;12.00;99.90;;;;;;5071537;28;20469;-64
2023/03/23 01:51:42;;;;;;;7.53;3.90;;;11.90;99.90;;;;;;5071640;28;20468;-65
2023/03/23 01:54:20;;;;;;;5.25;3.70;;;11.90;99.90;;;;;;5071542;28;20048;-65
2023/03/23 01:57:03;;;;;;;5.85;4.15;;;11.80;99.90;;;;;;5043874;28;20048;-65
2023/03/23 01:59:31;;;;;;;7.97;3.70;;;11.80;99.90;;;;;;5052615;28;20049;-64
2023/03/23 02:02:00;;;;;;;5.47;3.70;;;11.90;99.90;;;;;;5037689;28;20064;-65
2023/03/23 02:04:28;;;;;;;5.30;3.58;;;11.90;99.90;;;;;;5038048;28;20088;-65
2023/03/23 02:06:57;;;;;;;6.00;3.08;;;11.90;99.90;;;;;;5065989;28;20056;-64
2023/03/23 02:09:27;;;;;;;6.03;3.50;;;11.80;99.90;;;;;;5075257;28;20546;-64
2023/03/23 02:11:54;;;;;;;7.10;3.30;;;11.90;99.90;;;;;;5074974;28;20044;-65
2023/03/23 02:14:21;;;;;;;5.90;3.70;;;11.80;99.90;;;;;;5075122;28;20049;-64
2023/03/23 02:16:56;;;;;;;9.32;3.42;;;11.80;99.90;;;;;;5064536;28;20053;-64
2023/03/23 02:19:57;;;;;;;6.18;3.10;;;11.80;99.90;;;;;;5037706;28;20044;-65
2023/03/23 02:22:55;;;;;;;6.72;3.33;;;11.80;99.90;;;;;;5054641;28;20045;-64
2023/03/23 02:25:27;;;;;;;5.40;3.05;;;11.70;99.90;;;;;;5055068;28;20052;-64
2023/03/23 02:28:21;;;;;;;6.47;3.22;;;11.80;99.90;;;;;;5073216;28;20054;-64
2023/03/23 02:31:16;;;;;;;6.00;3.45;;;11.80;99.90;;;;;;5057211;28;20061;-64
2023/03/23 02:34:04;;;;;;;5.03;3.30;;;11.80;99.90;;;;;;5074449;28;20139;-64
2023/03/23 02:36:36;;;;;;;6.05;3.25;;;11.80;99.90;;;;;;5067392;28;20037;-64
2023/03/23 02:39:09;;;;;;;6.00;3.28;;;11.80;99.90;;;;;;5054627;28;20059;-64
2023/03/23 02:42:17;;;;;;;4.53;2.95;;;11.80;99.90;;;;;;5054599;28;20045;-64
2023/03/23 02:44:46;;;;;;;4.97;3.05;;;11.80;99.90;;;;;;5049742;28;20068;-64
2023/03/23 02:47:20;;;;;;;4.97;3.20;;;11.80;99.90;;;;;;5064052;28;20064;-64
2023/03/23 02:49:51;;;;;;;5.13;3.10;;;11.80;99.90;;;;;;5074822;28;20049;-64
2023/03/23 02:52:25;;;;;;;4.78;3.10;;;11.80;99.90;;;;;;5075094;28;20048;-64
2023/03/23 02:54:53;;;;;;;4.60;2.75;;;11.80;99.90;;;;;;5074573;28;20059;-64
2023/03/23 02:57:20;;;;;;;3.97;2.53;;;11.70;99.90;;;;;;5060492;28;20037;-64
2023/03/23 02:59:46;;;;;;;5.25;3.00;;;11.80;99.90;;;;;;5053837;28;20720;-64
2023/03/23 03:02:22;;;;;;;5.90;3.05;;;11.80;99.90;;;;;;5053839;28;20057;-64
2023/03/23 03:05:31;;;;;;;5.20;3.15;;;11.80;99.90;;;;;;5037687;28;20049;-64
2023/03/23 03:08:13;;;;;;;5.50;3.33;;;11.80;99.90;;;;;;5068249;28;20406;-65
2023/03/23 03:11:03;;;;;;;5.22;3.40;;;11.80;99.90;;;;;;5051224;28;20055;-64
2023/03/23 03:13:32;;;;;;;3.85;2.83;;;11.70;99.90;;;;;;5052842;28;20049;-64
2023/03/23 03:16:19;;;;;;;6.40;3.47;;;11.70;99.90;;;;;;5062903;28;20473;-65
2023/03/23 03:18:55;;;;;;;6.65;3.25;;;11.80;99.90;;;;;;5063838;28;20404;-64
2023/03/23 03:21:25;;;;;;;6.35;3.17;;;11.70;99.90;;;;;;5072025;28;20130;-64
2023/03/23 03:23:54;;;;;;;5.45;3.60;;;11.70;99.90;;;;;;5073659;28;20048;-63
2023/03/23 03:26:26;;;;;;;5.53;3.40;;;11.80;99.90;;;;;;5073737;28;20062;-65
2023/03/23 03:28:54;;;;;;;5.40;3.28;;;11.70;99.90;;;;;;5073881;28;20488;-64
2023/03/23 03:31:30;;;;;;;6.13;3.17;;;11.70;99.90;;;;;;5072809;28;20052;-64
2023/03/23 03:33:57;;;;;;;4.63;3.20;;;11.70;99.90;;;;;;5068462;28;20052;-66
2023/03/23 03:36:34;;;;;;;5.50;3.45;;;11.70;99.90;;;;;;5066217;28;20457;-64
2023/03/23 03:39:05;;;;;;;5.68;3.85;;;11.70;99.90;;;;;;5073053;28;20044;-65
2023/03/23 03:41:32;;;;;;;5.78;3.70;;;11.70;99.90;;;;;;5073081;28;20063;-64
2023/03/23 03:43:58;;;;;;;5.45;3.30;;;11.70;99.90;;;;;;5072853;28;20055;-64
2023/03/23 03:46:26;;;;;;;5.60;3.90;;;11.70;99.90;;;;;;5073302;28;20045;-64
2023/03/23 03:48:53;;;;;;;8.52;3.70;;;11.70;99.90;;;;;;5072244;28;20045;-65
2023/03/23 03:51:20;;;;;;;7.70;3.72;;;11.80;99.90;;;;;;5072161;28;20052;-64
2023/03/23 03:53:46;;;;;;;6.03;3.90;;;11.80;99.90;;;;;;5071640;28;20540;-64
2023/03/23 03:56:13;;;;;;;6.38;3.72;;;11.80;99.90;;;;;;5073121;28;20476;-64
2023/03/23 03:58:42;;;;;;;6.55;3.80;;;11.80;99.90;;;;;;5073230;28;20048;-64
2023/03/23 04:01:13;;;;;;;9.60;3.90;;;11.90;99.90;;;;;;5073005;28;20045;-64
2023/03/23 04:03:40;;;;;;;4.80;3.70;;;11.90;99.90;;;;;;5072817;28;20045;-65
2023/03/23 04:06:08;;;;;;;7.53;4.00;;;11.90;99.90;;;;;;5072833;28;20473;-64
2023/03/23 04:08:35;;;;;;;6.65;4.85;;;11.90;99.90;;;;;;5072812;28;20342;-65
2023/03/23 04:11:01;;;;;;;6.70;3.97;;;11.90;99.90;;;;;;5073069;28;20048;-63
2023/03/23 04:13:28;;;;;;;5.97;3.67;;;12.00;99.90;;;;;;5071202;28;20052;-64
2023/03/23 04:15:54;;;;;;;7.63;4.30;;;12.00;99.90;;;;;;5072268;28;20051;-63
2023/03/23 04:18:21;;;;;;;6.30;4.65;;;12.00;99.90;;;;;;5072817;28;20400;-65
2023/03/23 04:20:49;;;;;;;8.05;4.15;;;12.00;99.90;;;;;;5072032;28;20049;-64
2023/03/23 04:23:21;;;;;;;5.63;3.50;;;11.90;99.90;;;;;;5072233;28;20044;-64
2023/03/23 04:25:52;;;;;;;6.50;3.85;;;12.00;99.90;;;;;;5072713;28;20053;-65
2023/03/23 04:28:23;;;;;;;5.07;3.65;;;11.90;99.90;;;;;;5071427;28;20048;-64
2023/03/23 04:30:53;;;;;;;8.40;3.60;;;11.80;99.90;;;;;;5071475;28;20048;-64
2023/03/23 04:33:24;;;;;;;9.57;3.97;;;11.90;99.90;;;;;;5072232;28;20053;-64
2023/03/23 04:35:53;;;;;;;7.05;3.95;;;11.90;99.90;;;;;;5072270;28;20048;-65
2023/03/23 04:38:27;;;;;;;7.93;3.83;;;11.80;99.90;;;;;;5072644;28;20053;-65
2023/03/23 04:40:54;;;;;;;6.90;3.92;;;11.70;99.90;;;;;;5072614;28;20067;-65
2023/03/23 04:43:24;;;;;;;7.88;4.60;;;11.70;99.90;;;;;;5071466;28;20048;-64
2023/03/23 04:45:59;;;;;;;6.85;2.83;;;11.70;99.90;;;;;;5072058;28;20055;-65
2023/03/23 04:48:27;;;;;;;6.13;3.90;;;11.50;99.90;;;;;;5072450;28;20070;-64
2023/03/23 04:50:54;;;;;;;6.72;3.13;;;11.20;99.90;;;;;;5072513;28;20102;-64
2023/03/23 04:53:21;;;;;;;7.85;3.85;;;11.20;99.90;;;;;;5071923;28;20472;-66
2023/03/23 04:55:48;;;;;;;5.60;3.00;;;11.10;99.90;;;;;;5070920;28;20055;-64
2023/03/23 04:58:24;;;;;;;5.88;2.90;;;11.00;99.90;;;;;;5052266;28;20056;-65
2023/03/23 05:00:50;;;;;;;6.43;3.40;;;11.10;99.90;;;;;;5067766;28;20045;-65
2023/03/23 05:03:17;;;;;;;5.13;2.50;;;11.10;99.90;;;;;;5051085;28;20525;-64
2023/03/23 05:05:46;;;;;;;4.65;2.60;;;11.00;99.90;;;;;;5052312;28;20450;-65
2023/03/23 05:08:14;;;;;;;7.85;2.63;;;11.00;99.90;;;;;;5071840;28;20117;-64
2023/03/23 05:10:40;;;;;;;6.80;2.50;;;11.10;99.90;;;;;;5070894;28;20052;-64
2023/03/23 05:13:06;;;;;;;5.72;2.65;;;11.20;99.90;;;;;;5072135;28;20056;-65
2023/03/23 05:15:32;;;;;;;9.70;2.80;;;11.20;99.90;;;;;;5071522;28;20060;-65
2023/03/23 05:18:01;;;;;;;5.63;2.80;;;11.30;99.90;;;;;;5036363;28;20045;-65
2023/03/23 05:20:29;;;;;;;6.25;2.83;;;11.20;99.90;;;;;;5052149;28;20102;-66
2023/03/23 05:22:56;;;;;;;7.20;3.78;;;11.20;99.90;;;;;;5051868;28;20387;-65
2023/03/23 05:25:22;;;;;;;9.77;2.85;;;11.20;99.90;;;;;;5052230;28;20053;-65
2023/03/23 05:27:52;;;;;;;7.20;3.13;;;11.20;99.90;;;;;;5050568;28;20231;-66
2023/03/23 05:30:20;;;;;;;5.50;2.42;;;11.20;99.90;;;;;;5071953;28;20063;-64
2023/03/23 05:32:50;;;;;;;6.55;3.58;;;11.30;99.90;;;;;;5071727;28;20373;-65
2023/03/23 05:35:18;;;;;;;7.07;2.45;;;11.30;99.90;;;;;;5056317;28;20071;-65
2023/03/23 05:37:44;;;;;;;4.68;2.33;;;11.30;99.90;;;;;;5059657;28;20060;-64
2023/03/23 05:40:19;;;;;;;5.25;2.45;;;11.20;99.90;;;;;;5055858;28;20118;-65
2023/03/23 05:42:47;;;;;;;5.88;2.55;;;11.20;99.90;;;;;;5037822;28;20041;-64
2023/03/23 05:45:16;;;;;;;4.93;2.75;;;11.00;99.90;;;;;;5055602;28;20192;-64
2023/03/23 05:47:42;;;;;;;6.55;2.30;;;11.00;99.90;;;;;;5062897;28;20052;-65
2023/03/23 05:50:10;;;;;;;6.53;2.20;;;11.00;99.90;;;;;;5055225;28;20076;-64
2023/03/23 05:52:37;;;;;;;4.30;2.40;;;11.00;99.90;;;;;;5034370;28;20376;-64
2023/03/23 05:55:05;;;;;;;4.38;2.38;;;10.90;99.90;;;;;;5021340;28;20061;-65
2023/03/23 05:57:32;;;;;;;6.70;3.03;;;10.90;99.90;;;;;;5057793;28;20384;-65
2023/03/23 05:59:59;;;;;;;4.72;2.30;;;10.90;99.90;;;;;;5055059;28;20041;-65
2023/03/23 06:02:29;;;;;;;5.28;2.25;;;10.80;99.90;;;;;;5054507;28;20049;-65
2023/03/23 06:04:57;;;;;;;6.50;2.47;;;10.80;99.90;;;;;;5054670;28;20047;-65
2023/03/23 06:07:30;;;;;;;5.38;2.60;;;10.70;99.90;;;;;;5057221;28;20052;-65
2023/03/23 06:09:57;;;;;;;4.63;2.30;;;10.70;99.90;;;;;;5055394;28;20368;-65
2023/03/23 06:12:24;;;;;;;7.55;2.80;;;10.80;99.90;;;;;;5055104;28;20041;-65
2023/03/23 06:14:51;;;;;;;9.55;3.20;;;10.70;99.90;;;;;;5054103;28;20412;-65
2023/03/23 06:17:17;;;;;;;6.20;2.40;;;10.80;99.90;;;;;;5070194;28;20052;-65
2023/03/23 06:19:46;;;;;;;7.10;3.50;;;10.80;99.90;;;;;;5074089;28;20361;-65
2023/03/23 06:22:16;;;;;;;8.48;2.85;;;10.80;99.90;;;;;;5074671;28;20114;-64
2023/03/23 06:24:44;;;;;;;10.52;3.03;;;10.80;99.90;;;;;;5074724;28;20437;-64
2023/03/23 06:27:10;;;;;;;8.50;3.10;;;10.90;99.90;;;;;;5074110;28;20395;-65
2023/03/23 06:29:37;;;;;;;6.70;3.00;;;10.90;99.90;;;;;;5074949;28;20041;-64
2023/03/23 06:32:12;;;;;;;9.63;3.30;;;10.90;99.90;;;;;;5074568;28;20118;-64
2023/03/23 06:34:51;;;;;;;7.50;2.80;;;10.90;99.90;;;;;;5074812;28;20106;-64
2023/03/23 06:37:24;;;;;;;11.52;3.40;;;10.90;99.90;;;;;;5074555;28;20094;-65
2023/03/23 06:39:51;;;;;;;8.32;3.58;;;10.90;99.90;;;;;;5073665;28;20052;-65
2023/03/23 06:42:24;;;;;;;9.50;2.90;;;10.90;99.90;;;;;;5074218;28;20052;-65
2023/03/23 06:44:51;;;;;;;11.90;3.28;;;11.00;99.90;;;;;;5074313;28;20049;-65
2023/03/23 06:47:18;;;;;;;12.82;4.25;;;10.90;99.90;;;;;;5073757;28;20412;-65
2023/03/23 06:49:44;;;;;;;8.75;2.92;;;11.00;99.90;;;;;;5074709;28;20060;-65
2023/03/23 06:52:11;;;;;;;9.45;3.22;;;11.00;99.90;;;;;;5074352;28;20136;-65
2023/03/23 06:54:38;;;;;;;12.50;3.67;;;11.00;99.90;;;;;;5074343;28;20502;-65
2023/03/23 06:57:04;;;;;;;10.32;3.67;;;11.10;99.90;;;;;;5073270;28;20056;-66
2023/03/23 06:59:37;;;;;;;13.13;3.92;;;11.10;99.90;;;;;;5073116;28;20045;-65
2023/03/23 07:02:04;;;;;;;9.68;3.30;;;11.10;99.90;;;;;;5072820;28;20113;-66
2023/03/23 07:04:30;;;;;;;10.98;3.80;;;11.10;99.90;;;;;;5074404;28;20049;-65
2023/03/23 07:06:56;;;;;;;12.07;4.82;;;11.10;99.90;;;;;;5073958;28;20365;-67
2023/03/23 07:09:23;;;;;;;11.85;4.05;;;11.20;99.90;;;;;;5072672;28;20466;-65
2023/03/23 07:11:51;;;;;;;8.70;3.65;;;11.20;99.90;;;;;;5072118;28;20067;-64
2023/03/23 07:14:17;;;;;;;10.98;3.85;;;11.30;99.90;;;;;;5071286;28;20071;-65
2023/03/23 07:16:45;;;;;;;9.45;3.83;;;11.30;99.90;;;;;;5070649;28;20048;-64
2023/03/23 07:19:11;;;;;;;12.60;3.50;;;11.40;99.90;;;;;;5071728;28;20041;-65
2023/03/23 07:21:37;;;;;;;14.50;3.33;;;11.40;99.90;;;;;;5071835;28;20048;-65
2023/03/23 07:24:04;;;;;;;12.27;3.60;;;11.60;99.90;;;;;;5072798;28;20052;-64
2023/03/23 07:26:30;;;;;;;7.60;3.40;;;11.70;99.90;;;;;;5073409;28;20371;-64
2023/03/23 07:28:57;;;;;;;9.48;3.70;;;11.90;99.90;;;;;;5074079;28;20049;-64
2023/03/23 07:31:24;;;;;;;7.75;3.45;;;11.90;99.90;;;;;;5073168;28;20072;-64
2023/03/23 07:33:51;;;;;;;8.85;3.25;;;11.90;99.90;;;;;;5074000;28;20053;-63
2023/03/23 07:36:17;;;;;;;8.55;3.30;;;11.80;99.90;;;;;;5073647;28;20456;-65
2023/03/23 07:38:43;;;;;;;14.23;3.80;;;11.80;99.90;;;;;;5073646;28;20059;-65
2023/03/23 07:41:17;;;;;;;11.38;3.17;;;11.80;99.90;;;;;;5073607;28;20114;-65
2023/03/23 07:43:43;;;;;;;9.68;3.10;;;11.90;99.90;;;;;;5070705;28;20064;-65
2023/03/23 07:46:11;;;;;;;13.93;3.42;;;11.90;99.90;;;;;;5069516;28;20044;-65
2023/03/23 07:48:37;;;;;;;11.48;3.75;;;11.90;99.90;;;;;;5072583;28;20098;-65
2023/03/23 07:51:05;;;;;;;11.48;4.00;;;11.90;99.90;;;;;;5073679;28;20048;-65
2023/03/23 07:53:33;;;;;;;10.25;3.58;;;11.90;99.90;;;;;;5067975;28;20049;-66
2023/03/23 07:56:00;;;;;;;14.10;4.28;;;12.00;99.90;;;;;;5072710;28;20090;-65
2023/03/23 07:58:30;;;;;;;14.25;4.30;;;12.00;99.90;;;;;;5068100;28;20040;-66
2023/03/23 08:00:57;;;;;;;16.02;3.92;;;12.00;99.90;;;;;;5071831;28;20060;-65
2023/03/23 08:03:24;;;;;;;12.45;4.50;;;11.90;99.90;;;;;;5073143;28;20399;-66
2023/03/23 08:05:51;;;;;;;13.48;4.45;;;12.00;99.90;;;;;;5073719;28;20368;-66
2023/03/23 08:08:18;;;;;;;12.90;4.57;;;11.90;99.90;;;;;;5072752;28;20060;-65
2023/03/23 08:10:44;;;;;;;10.27;4.55;;;12.00;99.90;;;;;;5073989;28;20064;-66
2023/03/23 08:13:11;;;;;;;11.23;3.67;;;12.00;99.90;;;;;;5073348;28;20040;-65
2023/03/23 08:15:37;;;;;;;12.80;3.70;;;12.00;99.90;;;;;;5073107;28;20063;-65
2023/03/23 08:18:07;;;;;;;12.02;4.22;;;12.00;99.90;;;;;;5072975;28;20048;-65
2023/03/23 08:20:35;;;;;;;14.15;3.90;;;12.00;99.90;;;;;;5073518;28;20056;-64
2023/03/23 08:23:03;;;;;;;14.02;4.53;;;12.00;99.90;;;;;;5071671;28;20384;-65
2023/03/23 08:25:33;;;;;;;14.10;4.05;;;12.00;99.90;;;;;;5072367;28;20479;-65
2023/03/23 08:28:01;;;;;;;13.20;3.92;;;12.10;99.90;;;;;;5070546;28;20049;-66
2023/03/23 08:30:29;;;;;;;15.13;4.60;;;12.00;99.90;;;;;;5072143;28;20063;-67
2023/03/23 08:33:00;;;;;;;14.80;4.60;;;12.00;99.90;;;;;;5071946;28;20052;-65
2023/03/23 08:35:34;;;;;;;12.00;5.32;;;12.00;99.90;;;;;;5072494;28;20080;-65
2023/03/23 08:38:01;;;;;;;15.88;4.53;;;12.10;99.90;;;;;;5071633;28;20051;-65
2023/03/23 08:40:28;;;;;;;13.88;5.03;;;12.20;99.90;;;;;;5072145;28;20427;-66
2023/03/23 08:42:56;;;;;;;13.48;4.35;;;12.30;99.90;;;;;;5072446;28;20051;-65
2023/03/23 08:45:24;;;;;;;11.98;4.30;;;12.30;99.90;;;;;;5073365;28;20056;-66
2023/03/23 08:47:54;;;;;;;15.35;4.50;;;12.30;99.90;;;;;;5073149;28;20063;-64
2023/03/23 08:50:25;;;;;;;13.90;3.95;;;12.20;99.90;;;;;;5073842;28;20045;-64
2023/03/23 08:52:58;;;;;;;14.45;4.43;;;12.30;99.90;;;;;;5072827;28;20048;-64
2023/03/23 08:55:31;;;;;;;12.82;4.47;;;12.30;99.90;;;;;;5072198;28;20344;-65
2023/03/23 08:57:57;;;;;;;13.52;4.20;;;12.30;99.90;;;;;;5072337;28;20052;-65
2023/03/23 09:00:30;;;;;;;14.95;4.28;;;12.30;99.90;;;;;;5073152;28;20056;-65
2023/03/23 09:02:57;;;;;;;14.15;4.40;;;12.40;99.90;;;;;;5072594;28;20098;-66
2023/03/23 09:05:29;;;;;;;16.27;3.97;;;12.40;99.90;;;;;;5073733;28;20102;-65
2023/03/23 09:07:58;;;;;;;9.07;3.78;;;12.50;99.90;;;;;;5072997;28;20051;-65
2023/03/23 09:10:27;;;;;;;11.25;4.20;;;12.60;99.90;;;;;;5075436;28;20430;-65
2023/03/23 09:12:54;;;;;;;12.40;4.30;;;12.60;99.90;;;;;;5076598;28;20383;-66
2023/03/23 09:15:21;;;;;;;14.60;4.65;;;12.70;99.90;;;;;;5076934;28;20528;-65
2023/03/23 09:17:50;;;;;;;16.10;4.10;;;12.60;99.90;;;;;;5077150;28;20048;-65
2023/03/23 09:20:20;;;;;;;11.27;4.22;;;12.50;99.90;;;;;;5077122;28;20539;-65
2023/03/23 09:22:49;;;;;;;13.63;4.43;;;12.50;99.90;;;;;;5076799;28;20464;-65
2023/03/23 09:25:21;;;;;;;14.88;5.00;;;12.50;99.90;;;;;;5076484;28;20426;-64
2023/03/23 09:27:56;;;;;;;14.73;4.20;;;12.60;99.90;;;;;;5076765;28;20135;-66
2023/03/23 09:30:26;;;;;;;14.82;4.40;;;12.80;99.90;;;;;;5076194;28;20062;-65
2023/03/23 09:32:53;;;;;;;9.57;3.17;;;12.90;99.90;;;;;;5076766;28;20049;-65
2023/03/23 09:35:21;;;;;;;7.53;3.05;;;13.20;99.90;;;;;;5076718;28;20052;-65
2023/03/23 09:37:49;;;;;;;10.82;3.13;;;13.50;99.90;;;;;;5076451;28;20075;-66
2023/03/23 09:40:27;;;;;;;8.02;3.40;;;13.60;99.90;;;;;;5075534;28;20059;-65
2023/03/23 09:43:09;;;;;;;8.68;3.38;;;13.70;99.90;;;;;;5076084;28;20160;-65
2023/03/23 09:45:46;;;;;;;14.23;4.18;;;13.80;99.90;;;;;;5075583;28;20045;-65
2023/03/23 09:48:33;;;;;;;12.65;4.53;;;13.80;99.90;;;;;;5075347;28;20061;-64
2023/03/23 09:51:23;;;;;;;10.30;3.60;;;13.60;99.90;;;;;;5076667;28;20052;-65
2023/03/23 09:53:54;;;;;;;10.27;3.55;;;13.60;99.90;;;;;;5076587;28;20045;-65
2023/03/23 09:56:22;;;;;;;9.23;3.58;;;13.60;99.90;;;;;;5076146;28;20469;-65
2023/03/23 09:58:59;;;;;;;12.93;3.75;;;13.60;99.90;;;;;;5076072;28;20080;-65
2023/03/23 10:01:34;;;;;;;7.50;4.05;;;13.50;99.90;;;;;;5076026;28;20427;-65
2023/03/23 10:04:14;;;;;;;10.13;3.72;;;13.60;99.90;;;;;;5076248;28;20044;-65
2023/03/23 10:06:47;;;;;;;8.88;3.47;;;13.70;99.90;;;;;;5076226;28;20064;-65
2023/03/23 10:09:18;;;;;;;8.52;3.17;;;13.70;99.90;;;;;;5075823;28;20479;-63
2023/03/23 10:12:05;;;;;;;11.02;3.60;;;13.80;99.90;;;;;;5074906;28;20419;-65
2023/03/23 10:14:55;;;;;;;9.73;3.10;;;13.80;99.90;;;;;;5076130;28;20060;-65
2023/03/23 10:17:39;;;;;;;10.88;2.67;;;14.10;99.90;;;;;;5075141;28;20060;-64
2023/03/23 10:20:15;;;;;;;11.27;3.10;;;14.40;99.90;;;;;;5075452;28;20060;-65
2023/03/23 10:22:54;;;;;;;11.02;3.03;;;14.50;99.90;;;;;;5075514;28;20052;-64
2023/03/23 10:25:24;;;;;;;13.02;2.50;;;14.50;99.90;;;;;;5075359;28;20048;-65
2023/03/23 10:28:04;;;;;;;6.25;3.03;;;14.50;99.90;;;;;;5075600;28;20067;-64
2023/03/23 10:30:37;;;;;;;8.27;2.88;;;14.30;99.90;;;;;;5075750;28;20044;-65
2023/03/23 10:33:55;;;;;;;8.93;2.60;;;14.10;99.90;;;;;;5075274;28;20049;-64
2023/03/23 10:36:37;;;;;;;8.88;2.95;;;13.90;99.90;;;;;;4993849;28;20050;-63
2023/03/23 10:39:17;;;;;;;10.07;2.80;;;13.90;99.90;;;;;;5067772;28;20059;-63
2023/03/23 10:41:43;;;;;;;10.30;3.05;;;13.90;99.90;;;;;;5075089;28;20055;-62
2023/03/23 10:44:18;;;;;;;9.20;3.40;;;13.70;99.90;;;;;;5075401;28;20372;-63
2023/03/23 10:46:53;;;;;;;12.13;3.00;;;13.70;99.90;;;;;;5074851;28;20098;-63
2023/03/23 10:49:50;;;;;;;9.27;2.95;;;13.80;99.90;;;;;;5075113;28;20052;-64
2023/03/23 10:52:36;;;;;;;8.02;2.47;;;13.90;99.90;;;;;;5073425;28;20064;-63
2023/03/23 10:55:06;;;;;;;7.03;2.75;;;14.10;99.90;;;;;;5073829;28;20310;-63
2023/03/23 10:57:36;;;;;;;12.38;3.92;;;14.20;99.90;;;;;;5073419;28;20044;-63
2023/03/23 11:00:14;;;;;;;10.15;2.60;;;14.30;99.90;;;;;;5074590;28;20557;-64
2023/03/23 11:03:06;;;;;;;9.80;3.20;;;14.30;99.90;;;;;;5074619;28;20063;-63
2023/03/23 11:05:47;;;;;;;9.35;3.08;;;14.40;99.90;;;;;;5075049;28;20048;-64
2023/03/23 11:08:23;;;;;;;8.68;2.97;;;14.50;99.90;;;;;;5073328;28;20044;-63
2023/03/23 11:10:54;;;;;;;7.38;2.65;;;14.50;99.90;;;;;;5073989;28;20052;-64
2023/03/23 11:13:27;;;;;;;9.45;3.10;;;14.40;99.90;;;;;;5074741;28;20045;-63
2023/03/23 11:15:53;;;;;;;6.38;2.75;;;14.50;99.90;;;;;;5074438;28;20060;-64
2023/03/23 11:18:35;;;;;;;8.35;2.65;;;14.60;99.90;;;;;;5074544;28;20049;-63
2023/03/23 11:21:04;;;;;;;7.75;2.80;;;14.60;99.90;;;;;;5073051;28;20049;-65
2023/03/23 11:23:35;;;;;;;9.02;2.63;;;14.60;99.90;;;;;;5074695;28;20054;-65
2023/03/23 11:26:21;;;;;;;9.70;2.85;;;14.70;99.90;;;;;;5074596;28;20048;-63
2023/03/23 11:28:58;;;;;;;10.90;3.08;;;14.80;99.90;;;;;;5054623;28;20144;-64
2023/03/23 11:31:34;;;;;;;8.18;2.72;;;14.80;99.90;;;;;;5053303;28;20480;-63
2023/03/23 11:34:17;;;;;;;9.27;2.90;;;14.70;99.90;;;;;;5053966;28;20063;-64
2023/03/23 11:37:02;;;;;;;9.88;3.13;;;14.70;99.90;;;;;;5059461;28;20427;-66
2023/03/23 11:39:31;;;;;;;9.93;3.95;;;14.80;99.90;;;;;;5073930;28;20056;-63
2023/03/23 11:42:00;;;;;;;7.82;2.70;;;15.00;99.90;;;;;;5072881;28;20059;-64
2023/03/23 11:44:41;;;;;;;9.90;2.58;;;15.20;99.90;;;;;;5074227;28;20064;-63
2023/03/23 11:47:24;;;;;;;13.98;3.08;;;15.20;99.90;;;;;;5073915;28;20052;-62
2023/03/23 11:50:17;;;;;;;6.72;3.25;;;15.10;99.90;;;;;;5074189;28;20056;-65
2023/03/23 11:53:15;;;;;;;9.70;3.22;;;14.90;99.90;;;;;;5072784;28;20431;-63
2023/03/23 11:55:45;;;;;;;9.25;2.90;;;14.90;99.90;;;;;;5054823;28;20049;-64
2023/03/23 11:58:14;;;;;;;10.75;3.15;;;14.80;99.90;;;;;;5071208;28;20106;-62
2023/03/23 12:00:57;;;;;;;9.52;2.80;;;14.90;99.90;;;;;;5073805;28;20044;-63
2023/03/23 12:03:46;;;;;;;7.55;2.95;;;14.80;99.90;;;;;;5074228;28;20048;-63
2023/03/23 12:06:21;;;;;;;9.50;3.08;;;14.90;99.90;;;;;;5033115;28;20506;-64
2023/03/23 12:09:01;;;;;;;7.07;2.30;;;14.80;99.90;;;;;;5066526;28;20121;-63
2023/03/23 12:11:41;;;;;;;10.98;3.20;;;14.80;99.90;;;;;;5073038;28;20052;-63
2023/03/23 12:14:26;;;;;;;11.77;2.80;;;14.90;99.90;;;;;;5073676;28;20064;-63
2023/03/23 12:17:20;;;;;;;9.70;2.70;;;14.90;99.90;;;;;;5071850;28;20056;-63
2023/03/23 12:20:21;;;;;;;9.05;2.92;;;14.90;99.90;;;;;;5073564;28;20059;-64
2023/03/23 12:23:21;;;;;;;8.55;2.55;;;14.80;99.90;;;;;;5073087;28;20044;-64
2023/03/23 12:26:06;;;;;;;8.05;2.70;;;14.70;99.90;;;;;;5073287;28;20551;-63
2023/03/23 12:28:45;;;;;;;9.35;2.97;;;14.60;99.90;;;;;;5073095;28;20472;-63
2023/03/23 12:31:22;;;;;;;9.52;2.72;;;14.60;99.90;;;;;;5072905;28;20121;-63
2023/03/23 12:34:06;;;;;;;8.00;2.60;;;14.50;99.90;;;;;;5073516;28;20044;-63
2023/03/23 12:36:53;;;;;;;7.55;3.13;;;14.40;99.90;;;;;;5073149;28;20072;-63
2023/03/23 12:39:45;;;;;;;9.30;2.67;;;14.30;99.90;;;;;;5073982;28;20049;-63
2023/03/23 12:42:33;;;;;;;11.57;3.60;;;14.40;99.90;;;;;;5072444;28;20114;-63
2023/03/23 12:45:38;;;;;;;7.93;2.70;;;14.50;99.90;;;;;;5072936;28;20056;-63
2023/03/23 12:48:11;;;;;;;8.48;2.83;;;14.90;99.90;;;;;;5050683;28;20471;-63
2023/03/23 12:50:59;;;;;;;10.02;2.60;;;15.00;99.90;;;;;;5073291;28;20056;-64
2023/03/23 12:53:30;;;;;;;9.43;3.42;;;15.40;99.90;;;;;;5073527;28;20388;-63
2023/03/23 12:56:47;;;;;;;8.35;2.83;;;15.50;99.90;;;;;;5073333;28;20083;-64
2023/03/23 12:59:53;;;;;;;7.32;2.28;;;15.60;99.90;;;;;;4972149;28;20435;-63
2023/03/23 13:02:30;;;;;;;11.27;2.75;;;15.70;99.90;;;;;;5044121;28;20128;-65
2023/03/23 13:05:08;;;;;;;14.90;2.88;;;15.60;99.90;;;;;;5053112;28;20049;-65
2023/03/23 13:07:49;;;;;;;10.02;2.78;;;15.50;99.90;;;;;;5063100;28;20063;-64
2023/03/23 13:10:19;;;;;;;10.93;2.40;;;15.40;99.90;;;;;;5073274;28;20053;-65